Time;durP1;ratioP1;P1;durP2;ratioP2;P2;SDS_P1;SDS_P2;PMS_P1;PMS_P2;Temp;Humidity;BMP_temperature;BMP_pressure;BME280_temperature;BME280_humidity;BME280_pressure;Samples;Min_cycle;Max_cycle;Signal;HPM_P1;HPM_P2
2021/12/10 09:24:17;;;;;;;20.27;8.60;;;;;;;1.86;76.00;96162.72;5848140;24;21128;-44
2021/12/10 09:26:43;;;;;;;18.23;8.82;;;;;;;1.98;75.68;96161.88;4840117;29;20514;-48
2021/12/10 09:29:10;;;;;;;17.35;8.23;;;;;;;2.12;75.40;96166.94;4841762;29;20109;-49
2021/12/10 09:31:38;;;;;;;18.60;8.40;;;;;;;2.05;75.52;96155.38;4835588;29;20453;-50
2021/12/10 09:34:04;;;;;;;16.90;8.30;;;;;;;2.08;75.91;96155.16;4822969;29;20026;-48
2021/12/10 09:36:29;;;;;;;17.52;8.23;;;;;;;1.92;75.79;96144.19;4828112;29;20029;-49
2021/12/10 09:38:55;;;;;;;18.73;8.80;;;;;;;1.84;76.38;96141.28;4842442;29;20022;-52
2021/12/10 09:41:22;;;;;;;18.20;7.63;;;;;;;2.18;75.27;96126.09;4841691;29;20162;-49
2021/12/10 09:43:48;;;;;;;19.63;8.98;;;;;;;1.98;75.40;96135.19;4840049;29;20106;-49
2021/12/10 09:46:14;;;;;;;16.30;7.40;;;;;;;2.30;74.40;96120.06;4842150;29;20034;-46
2021/12/10 09:48:40;;;;;;;16.95;7.82;;;;;;;2.41;74.23;96122.78;4842921;29;20482;-50
2021/12/10 09:51:29;;;;;;;15.77;6.93;;;;;;;2.45;73.67;96121.63;4843122;29;20036;-50
2021/12/10 09:53:58;;;;;;;16.50;8.02;;;;;;;2.40;74.17;96110.75;4842567;29;20030;-47
2021/12/10 09:56:24;;;;;;;17.83;7.50;;;;;;;2.40;74.19;96097.00;4843276;29;20042;-50
2021/12/10 09:58:50;;;;;;;17.90;7.45;;;;;;;2.43;74.27;96100.19;4842649;29;20026;-50
2021/12/10 10:01:21;;;;;;;15.30;8.18;;;;;;;2.61;73.62;96088.56;4842208;29;20104;-50
2021/12/10 10:03:48;;;;;;;16.27;7.60;;;;;;;2.46;73.73;96081.88;4842736;29;20034;-49
2021/12/10 10:06:13;;;;;;;18.08;7.85;;;;;;;2.53;74.10;96079.69;4841081;29;20498;-49
2021/12/10 10:08:39;;;;;;;16.15;7.75;;;;;;;2.70;72.69;96070.72;4840029;29;20120;-54
2021/12/10 10:11:27;;;;;;;13.90;6.47;;;;;;;2.64;72.43;96061.63;4841659;29;20106;-50
2021/12/10 10:13:53;;;;;;;17.10;7.05;;;;;;;2.52;72.76;96055.56;4841132;29;20037;-51
2021/12/10 10:16:20;;;;;;;15.77;6.18;;;;;;;2.53;72.60;96058.97;4841698;29;20037;-53
2021/12/10 10:18:46;;;;;;;14.77;6.45;;;;;;;2.58;72.32;96056.88;4840811;29;20163;-51
2021/12/10 10:21:19;;;;;;;12.23;5.57;;;;;;;2.53;71.94;96049.44;4840158;29;20030;-48
2021/12/10 10:23:45;;;;;;;18.42;5.78;;;;;;;2.82;71.07;96055.16;4841316;29;20467;-48
2021/12/10 10:26:13;;;;;;;13.00;5.45;;;;;;;2.86;70.86;96050.59;4839920;29;20034;-48
2021/12/10 10:28:38;;;;;;;14.13;5.40;;;;;;;2.64;70.20;96045.28;4840777;29;20030;-51
2021/12/10 10:31:09;;;;;;;12.73;4.43;;;;;;;2.74;69.61;96046.28;4841209;29;20482;-47
2021/12/10 10:33:35;;;;;;;12.48;4.50;;;;;;;2.51;69.80;96033.22;4840887;29;20034;-50
2021/12/10 10:36:07;;;;;;;12.30;4.70;;;;;;;2.74;70.16;96030.75;4840914;29;20037;-52
2021/12/10 10:38:32;;;;;;;11.30;4.95;;;;;;;2.58;70.85;96021.50;4841044;29;20475;-51
2021/12/10 10:41:02;;;;;;;13.32;4.88;;;;;;;2.46;70.70;96024.94;4841374;29;20077;-49
2021/12/10 10:43:28;;;;;;;10.15;4.57;;;;;;;2.65;69.66;96023.63;4840862;29;20435;-48
2021/12/10 10:45:53;;;;;;;11.65;4.28;;;;;;;2.84;68.78;96021.38;4839893;29;20029;-52
2021/12/10 10:48:19;;;;;;;10.27;4.15;;;;;;;3.09;68.40;96029.00;4840320;29;20034;-50
2021/12/10 10:50:58;;;;;;;12.30;4.72;;;;;;;2.85;68.44;96030.78;4841039;29;20502;-54
2021/12/10 10:53:27;;;;;;;8.98;3.65;;;;;;;2.79;68.86;96044.19;4840883;29;20105;-51
2021/12/10 10:56:11;;;;;;;10.02;3.88;;;;;;;3.01;68.46;96035.69;4840847;29;20033;-51
2021/12/10 10:58:41;;;;;;;10.90;4.25;;;;;;;2.97;67.43;96037.69;4840884;29;20131;-49
2021/12/10 11:01:20;;;;;;;9.32;4.00;;;;;;;3.15;67.17;96045.03;4841206;29;20030;-49
2021/12/10 11:03:58;;;;;;;13.32;4.72;;;;;;;2.85;68.89;96043.72;4840705;29;20034;-51
2021/12/10 11:06:27;;;;;;;9.27;3.47;;;;;;;2.98;68.20;96039.31;4840970;29;20029;-50
2021/12/10 11:08:55;;;;;;;9.55;3.80;;;;;;;3.18;67.29;96044.81;4840440;29;20029;-53
2021/12/10 11:11:29;;;;;;;9.77;4.05;;;;;;;3.36;67.35;96040.88;4843407;29;20026;-51
2021/12/10 11:14:10;;;;;;;10.20;4.15;;;;;;;3.27;67.47;96039.81;4843910;29;20032;-55
2021/12/10 11:16:37;;;;;;;11.77;4.25;;;;;;;3.40;67.67;96029.34;4843253;29;20034;-52
2021/12/10 11:19:07;;;;;;;12.70;5.07;;;;;;;3.33;67.70;96033.31;4843920;29;20078;-53
2021/12/10 11:21:36;;;;;;;10.48;4.13;;;;;;;3.76;67.24;96030.13;4844210;29;20034;-49
2021/12/10 11:24:31;;;;;;;15.00;5.35;;;;;;;3.63;67.34;96026.81;4843786;29;20085;-50
2021/12/10 11:26:59;;;;;;;11.63;4.38;;;;;;;3.54;67.17;96021.38;4844896;29;20569;-49
2021/12/10 11:29:51;;;;;;;10.90;4.60;;;;;;;3.52;67.46;96025.84;4846014;29;20434;-51
2021/12/10 11:32:26;;;;;;;10.05;3.83;;;;;;;3.87;66.43;96024.94;4846488;29;20041;-47
2021/12/10 11:35:08;;;;;;;9.98;3.97;;;;;;;3.81;66.59;96013.25;4850462;29;20501;-47
2021/12/10 11:37:38;;;;;;;10.93;3.95;;;;;;;3.96;65.69;96019.06;4850251;29;20030;-49
2021/12/10 11:40:04;;;;;;;9.30;4.28;;;;;;;3.94;66.22;96013.16;4850623;29;20038;-50
2021/12/10 11:42:35;;;;;;;9.05;4.20;;;;;;;3.85;66.72;96019.03;4850744;29;20093;-49
2021/12/10 11:45:17;;;;;;;8.40;3.80;;;;;;;4.02;65.48;96018.56;4851902;29;20466;-50
2021/12/10 11:47:49;;;;;;;15.18;5.35;;;;;;;4.11;66.42;96006.66;4851528;29;20497;-47
2021/12/10 11:50:19;;;;;;;9.90;4.10;;;;;;;4.10;65.33;96017.16;4850818;29;20026;-49
2021/12/10 11:52:44;;;;;;;10.35;4.35;;;;;;;4.30;65.57;96008.63;4844012;29;20041;-48
2021/12/10 11:55:10;;;;;;;10.43;3.70;;;;;;;3.90;65.27;96009.16;4828631;29;20026;-51
2021/12/10 11:57:40;;;;;;;10.85;4.32;;;;;;;4.12;65.32;96002.28;4846930;29;20513;-47
2021/12/10 16:18:48;;;;;;;10.77;4.20;;;;;;;1.77;74.63;96059.91;5851029;23;20755;-48
2021/12/10 16:21:29;;;;;;;9.85;4.38;;;;;;;1.56;75.10;96063.00;4860949;29;20068;-49
2021/12/10 16:24:02;;;;;;;11.38;4.45;;;;;;;1.61;74.80;96068.69;4844518;29;20090;-47
2021/12/10 16:26:31;;;;;;;12.02;4.80;;;;;;;1.65;74.73;96065.00;4857997;29;20029;-51
2021/12/10 16:29:03;;;;;;;13.73;5.15;;;;;;;1.67;75.17;96076.03;4858336;29;20614;-49
2021/12/10 16:31:30;;;;;;;13.60;4.70;;;;;;;1.70;75.12;96076.78;4844253;29;20034;-49
2021/12/10 16:33:57;;;;;;;11.40;4.90;;;;;;;1.43;75.34;96077.66;4842449;29;20421;-46
2021/12/10 16:36:23;;;;;;;12.38;5.15;;;;;;;1.37;75.51;96081.47;4843753;29;20037;-49
2021/12/10 16:38:50;;;;;;;11.82;5.47;;;;;;;1.27;76.38;96077.00;4842701;29;20029;-47
2021/12/10 16:41:27;;;;;;;12.75;6.22;;;;;;;1.28;76.67;96084.69;4843817;29;20504;-47
2021/12/10 16:43:58;;;;;;;15.40;6.03;;;;;;;1.50;76.20;96089.25;4843297;29;20038;-48
2021/12/10 16:46:24;;;;;;;16.88;6.57;;;;;;;1.65;75.42;96101.16;4842806;29;20030;-50
2021/12/10 16:48:52;;;;;;;17.73;6.00;;;;;;;1.61;75.77;96096.28;4843802;29;20494;-47
2021/12/10 16:51:32;;;;;;;15.68;5.72;;;;;;;1.71;75.32;96101.69;4844000;29;20398;-50
2021/12/10 16:54:03;;;;;;;12.32;5.47;;;;;;;1.75;75.24;96106.53;4843577;29;20057;-47
2021/12/10 16:56:28;;;;;;;14.13;6.00;;;;;;;1.60;75.34;96104.97;4843351;29;20030;-48
2021/12/10 16:58:54;;;;;;;14.25;5.78;;;;;;;1.69;75.34;96103.53;4843562;29;20082;-47
2021/12/10 17:01:25;;;;;;;12.27;5.70;;;;;;;1.62;75.36;96109.13;4843608;29;20525;-48
2021/12/10 17:03:52;;;;;;;14.75;6.28;;;;;;;1.62;75.57;96103.97;4843641;29;20026;-46
2021/12/10 17:06:19;;;;;;;13.52;5.55;;;;;;;1.73;75.41;96105.00;4844061;29;20109;-49
2021/12/10 17:08:44;;;;;;;14.10;6.43;;;;;;;1.39;76.42;96102.06;4842212;29;20577;-46
2021/12/10 17:11:13;;;;;;;14.77;6.00;;;;;;;1.78;75.18;96118.44;4843582;29;20530;-48
2021/12/10 17:13:47;;;;;;;13.07;5.97;;;;;;;1.63;75.42;96115.94;4843383;29;20026;-49
2021/12/10 17:16:16;;;;;;;12.88;6.30;;;;;;;1.64;75.91;96115.00;4843708;29;20117;-50
2021/12/10 17:18:43;;;;;;;12.77;6.57;;;;;;;1.65;75.81;96124.44;4842913;29;20506;-47
2021/12/10 17:21:12;;;;;;;12.40;5.47;;;;;;;1.83;75.42;96121.56;4843712;29;20037;-49
2021/12/10 17:23:38;;;;;;;14.60;5.72;;;;;;;1.64;75.48;96122.75;4841289;29;20113;-52
2021/12/10 17:26:09;;;;;;;13.43;5.68;;;;;;;1.85;75.76;96125.66;4842826;29;20482;-49
2021/12/10 17:28:36;;;;;;;17.08;6.70;;;;;;;1.86;75.92;96136.88;4843419;29;20034;-48
2021/12/10 17:31:12;;;;;;;12.77;6.22;;;;;;;1.62;76.09;96134.97;4842981;29;20041;-47
2021/12/10 17:33:45;;;;;;;15.07;6.68;;;;;;;1.70;75.68;96137.03;4843079;29;20037;-48
2021/12/10 17:36:12;;;;;;;18.35;7.07;;;;;;;1.72;75.69;96145.53;4842948;29;20098;-51
2021/12/10 17:38:38;;;;;;;17.00;7.57;;;;;;;1.54;76.37;96152.72;4842930;29;20030;-47
2021/12/10 17:41:10;;;;;;;15.80;6.80;;;;;;;1.73;76.12;96143.78;4842827;29;20037;-47
2021/12/10 17:43:39;;;;;;;15.23;6.85;;;;;;;1.70;76.45;96155.13;4842629;29;20037;-49
2021/12/10 17:46:27;;;;;;;17.73;7.53;;;;;;;1.64;76.32;96148.59;4842710;29;20037;-47
2021/12/10 17:48:55;;;;;;;14.32;7.03;;;;;;;1.74;76.49;96155.75;4842587;29;20026;-49
2021/12/10 17:51:26;;;;;;;17.85;7.40;;;;;;;1.57;77.17;96164.59;4842745;29;20528;-50
2021/12/10 17:53:53;;;;;;;13.93;6.68;;;;;;;1.72;77.06;96173.09;4842566;29;20069;-47
2021/12/10 17:56:19;;;;;;;18.88;8.85;;;;;;;1.56;77.45;96179.28;4842763;29;20241;-46
2021/12/10 17:58:46;;;;;;;15.55;7.35;;;;;;;1.56;78.04;96176.69;4842531;29;20026;-50
2021/12/10 18:01:15;;;;;;;15.20;7.38;;;;;;;1.45;78.60;96183.50;4841207;29;20156;-50
2021/12/10 18:03:50;;;;;;;18.05;7.97;;;;;;;1.21;79.58;96170.41;4842337;29;20406;-51
2021/12/10 18:06:21;;;;;;;16.58;7.38;;;;;;;1.46;79.38;96175.66;4842273;29;20058;-50
2021/12/10 18:08:47;;;;;;;15.47;7.83;;;;;;;1.36;79.09;96180.56;4841248;29;20040;-48
2021/12/10 18:11:12;;;;;;;15.32;8.15;;;;;;;1.21;80.28;96186.72;4842924;29;20030;-51
2021/12/10 18:13:39;;;;;;;16.13;8.23;;;;;;;1.26;80.27;96183.84;4842438;29;20083;-49
2021/12/10 18:16:11;;;;;;;15.27;8.05;;;;;;;1.42;79.53;96194.84;4842449;29;20450;-49
2021/12/10 18:18:39;;;;;;;17.33;8.80;;;;;;;1.40;79.66;96189.78;4841663;29;20402;-49
2021/12/10 18:21:17;;;;;;;17.10;8.80;;;;;;;1.16;80.14;96202.47;4842365;29;20059;-51
2021/12/10 18:23:51;;;;;;;15.65;8.73;;;;;;;1.21;81.05;96206.56;4842226;29;20390;-47
2021/12/10 18:26:19;;;;;;;15.82;8.68;;;;;;;1.16;80.63;96209.41;4842312;29;20036;-51
2021/12/10 18:28:51;;;;;;;16.08;8.63;;;;;;;1.28;80.66;96213.00;4841418;29;20509;-48
2021/12/10 18:31:19;;;;;;;17.17;9.30;;;;;;;1.31;80.82;96212.78;4842225;29;20455;-47
2021/12/10 18:33:45;;;;;;;22.75;9.52;;;;;;;1.35;80.78;96209.09;4842080;29;20034;-51
2021/12/10 18:36:16;;;;;;;18.75;9.75;;;;;;;1.24;80.68;96208.91;4842336;29;20045;-49
2021/12/10 18:38:42;;;;;;;16.42;9.00;;;;;;;1.12;80.71;96201.03;4841412;29;20018;-51
2021/12/10 18:41:09;;;;;;;20.50;9.65;;;;;;;1.22;80.57;96208.19;4842008;29;20058;-48
2021/12/10 18:43:36;;;;;;;18.10;9.23;;;;;;;1.23;80.79;96215.00;4851229;29;20040;-49
2021/12/10 18:46:10;;;;;;;16.27;9.00;;;;;;;1.24;80.85;96216.66;4861594;29;20033;-49
2021/12/10 18:48:36;;;;;;;19.10;10.07;;;;;;;1.23;81.05;96222.75;4846047;29;20022;-50
2021/12/10 18:51:10;;;;;;;19.95;10.82;;;;;;;1.29;80.34;96219.81;4842913;29;20371;-50
2021/12/10 18:53:39;;;;;;;22.65;11.55;;;;;;;1.08;81.13;96230.53;4841156;29;20515;-50
2021/12/10 18:56:07;;;;;;;19.92;10.43;;;;;;;1.14;81.00;96235.34;4842207;29;20394;-47
2021/12/10 18:58:40;;;;;;;19.70;10.38;;;;;;;1.12;81.50;96239.75;4840868;29;20030;-47
2021/12/10 19:01:10;;;;;;;23.58;10.23;;;;;;;1.12;81.21;96244.91;4841970;29;20117;-48
2021/12/10 19:03:40;;;;;;;20.65;10.15;;;;;;;1.23;81.37;96244.25;4842203;29;20026;-48
2021/12/10 19:06:09;;;;;;;20.33;9.95;;;;;;;1.21;80.86;96251.28;4839904;29;20059;-47
2021/12/10 19:08:49;;;;;;;19.70;10.93;;;;;;;1.06;81.95;96255.63;4840719;29;20030;-49
2021/12/10 19:11:16;;;;;;;21.23;11.13;;;;;;;1.32;80.98;96255.78;4841031;29;20070;-47
2021/12/10 19:13:48;;;;;;;20.85;10.88;;;;;;;1.37;81.19;96253.72;4839037;29;20114;-47
2021/12/10 19:16:26;;;;;;;22.10;11.35;;;;;;;1.24;81.35;96256.25;4824166;29;20055;-46
2021/12/10 19:19:01;;;;;;;20.00;10.77;;;;;;;1.10;81.67;96264.84;4836810;29;20033;-51
2021/12/10 19:21:29;;;;;;;19.58;10.73;;;;;;;1.24;80.99;96261.44;4840349;29;20037;-50
2021/12/10 19:23:59;;;;;;;20.63;11.82;;;;;;;0.99;82.31;96259.50;4840393;29;20034;-49
2021/12/10 19:26:27;;;;;;;23.15;12.13;;;;;;;1.18;81.99;96272.13;4840675;29;20406;-46
2021/12/10 19:28:55;;;;;;;23.30;12.27;;;;;;;1.00;82.47;96271.50;4839996;29;20075;-47
2021/12/10 19:31:37;;;;;;;26.10;11.95;;;;;;;0.96;82.31;96264.84;4840358;29;20548;-51
2021/12/10 19:34:13;;;;;;;19.67;11.57;;;;;;;1.07;82.60;96277.94;4843410;29;20037;-47
2021/12/10 19:36:46;;;;;;;22.75;12.02;;;;;;;0.94;82.88;96277.88;4842734;29;20025;-48
2021/12/10 19:39:24;;;;;;;22.58;12.05;;;;;;;1.18;82.09;96274.72;4843984;29;20046;-50
2021/12/10 19:41:55;;;;;;;22.75;11.95;;;;;;;1.06;82.07;96284.03;4843833;29;20502;-49
2021/12/10 19:44:22;;;;;;;23.77;11.70;;;;;;;1.11;82.64;96294.91;4843550;29;20026;-49
2021/12/10 19:46:51;;;;;;;24.90;13.50;;;;;;;1.15;82.47;96295.56;4845197;29;20045;-48
2021/12/10 19:49:39;;;;;;;25.40;13.23;;;;;;;1.01;82.96;96303.31;4844166;29;20077;-50
2021/12/10 19:52:05;;;;;;;23.25;11.65;;;;;;;1.03;82.90;96307.44;4843994;29;20034;-47
2021/12/10 19:54:36;;;;;;;23.77;12.77;;;;;;;1.18;81.94;96301.34;4828218;29;20573;-48
2021/12/10 19:57:11;;;;;;;27.35;14.38;;;;;;;1.08;82.75;96309.75;4842663;29;20058;-48
2021/12/10 19:59:41;;;;;;;23.40;12.63;;;;;;;1.24;82.30;96313.06;4844567;29;20063;-49
2021/12/10 20:02:25;;;;;;;21.95;12.30;;;;;;;1.29;82.11;96312.78;4824666;29;20058;-48
2021/12/10 20:04:54;;;;;;;24.88;12.13;;;;;;;1.26;82.28;96318.13;4841621;29;20030;-48
2021/12/10 20:07:19;;;;;;;23.58;12.77;;;;;;;1.31;81.85;96318.69;4841238;29;20064;-48
2021/12/10 20:09:55;;;;;;;24.38;12.18;;;;;;;1.23;82.43;96318.31;4841290;29;20082;-49
2021/12/10 20:12:23;;;;;;;24.48;13.35;;;;;;;1.13;82.50;96323.22;4842881;29;20032;-51
2021/12/10 20:14:52;;;;;;;25.50;13.07;;;;;;;1.10;82.94;96329.41;4841572;29;20042;-51
2021/12/10 20:17:30;;;;;;;24.67;13.45;;;;;;;1.06;83.05;96335.66;4842261;29;20105;-50
2021/12/10 20:20:03;;;;;;;23.75;13.15;;;;;;;1.21;82.76;96336.50;4841724;29;20034;-50
2021/12/10 20:22:43;;;;;;;25.05;13.43;;;;;;;1.02;83.17;96341.94;4841447;29;20486;-48
2021/12/10 20:25:15;;;;;;;25.45;13.48;;;;;;;1.06;82.85;96352.91;4841579;29;20061;-48
2021/12/10 20:27:44;;;;;;;25.15;14.23;;;;;;;0.90;83.55;96358.16;4840675;29;20030;-51
2021/12/10 20:30:19;;;;;;;23.05;13.20;;;;;;;0.86;84.13;96359.25;4842070;29;20026;-50
2021/12/10 20:32:46;;;;;;;23.25;12.98;;;;;;;0.96;84.12;96355.19;4842254;29;20494;-47
2021/12/10 20:35:21;;;;;;;22.80;13.43;;;;;;;0.90;83.09;96368.50;4841107;29;20036;-49
2021/12/10 20:37:53;;;;;;;24.40;14.05;;;;;;;1.07;83.11;96370.91;4841814;29;20026;-47
2021/12/10 20:40:31;;;;;;;27.38;14.93;;;;;;;0.94;83.38;96369.97;4840410;29;20033;-48
2021/12/10 20:43:00;;;;;;;37.55;19.20;;;;;;;0.93;83.19;96379.47;4841214;29;20113;-47
2021/12/10 20:45:37;;;;;;;24.10;13.85;;;;;;;0.93;83.61;96373.47;4841431;29;20037;-48
2021/12/10 20:48:06;;;;;;;27.77;14.82;;;;;;;0.86;84.07;96380.75;4841274;29;20514;-50
2021/12/10 20:50:40;;;;;;;27.38;14.55;;;;;;;0.80;84.14;96388.03;4841745;29;20037;-51
2021/12/10 20:53:09;;;;;;;27.30;14.00;;;;;;;0.87;84.34;96386.75;4841258;29;20029;-47
2021/12/10 20:55:40;;;;;;;27.05;13.82;;;;;;;0.79;84.44;96392.34;4843112;29;20114;-49
2021/12/10 20:58:08;;;;;;;26.27;14.43;;;;;;;0.73;84.31;96390.13;4842465;29;20044;-50
2021/12/10 21:00:45;;;;;;;29.33;14.93;;;;;;;0.86;84.50;96395.38;4843072;29;20026;-46
2021/12/10 21:03:18;;;;;;;25.38;14.40;;;;;;;0.68;84.50;96399.88;4842063;29;20546;-46
2021/12/10 21:05:50;;;;;;;31.13;15.57;;;;;;;0.81;84.69;96395.66;4843211;29;20467;-51
2021/12/10 21:08:22;;;;;;;29.33;15.32;;;;;;;0.87;84.34;96399.66;4843329;29;20037;-46
2021/12/10 21:10:50;;;;;;;28.80;14.73;;;;;;;0.78;84.45;96392.44;4843464;29;20034;-49
2021/12/10 21:13:16;;;;;;;26.05;13.18;;;;;;;1.07;83.93;96411.38;4843466;29;20518;-47
2021/12/10 21:15:49;;;;;;;25.20;13.43;;;;;;;0.90;84.08;96409.78;4844120;29;20034;-49
2021/12/10 21:18:36;;;;;;;45.63;17.85;;;;;;;0.80;84.37;96417.25;4844633;29;20041;-47
2021/12/10 21:21:23;;;;;;;32.85;16.05;;;;;;;0.93;84.37;96419.94;4842541;29;20121;-48
2021/12/10 21:24:05;;;;;;;26.27;13.55;;;;;;;0.83;84.90;96429.97;4844245;29;20045;-46
2021/12/10 21:26:39;;;;;;;29.17;14.15;;;;;;;0.94;84.53;96429.34;4843778;29;20498;-51
2021/12/10 21:29:16;;;;;;;28.98;14.88;;;;;;;0.94;84.26;96419.03;4844295;29;20120;-50
2021/12/10 21:31:55;;;;;;;32.88;16.08;;;;;;;0.88;84.65;96432.28;4843927;29;20033;-48
2021/12/10 21:34:23;;;;;;;25.58;13.65;;;;;;;0.89;84.60;96439.09;4845243;29;20033;-47
2021/12/10 21:39:18;;;;;;;26.40;13.07;;;;;;;0.84;85.16;96451.44;4845061;29;20117;-48
2021/12/10 21:41:43;;;;;;;26.20;14.45;;;;;;;0.91;85.16;96447.59;4851380;29;20030;-48
2021/12/10 21:44:16;;;;;;;26.35;13.13;;;;;;;0.91;85.08;96456.16;4863836;29;20497;-47
2021/12/10 21:46:47;;;;;;;24.20;12.27;;;;;;;1.02;84.98;96455.53;4848826;29;20030;-53
2021/12/10 21:49:14;;;;;;;26.67;14.10;;;;;;;0.84;84.88;96466.94;4843066;29;20041;-48
2021/12/10 21:51:47;;;;;;;28.92;14.98;;;;;;;0.95;85.20;96474.88;4842281;29;20162;-48
2021/12/10 21:54:21;;;;;;;26.63;14.75;;;;;;;0.86;85.52;96468.50;4843540;29;20072;-48
2021/12/10 21:56:47;;;;;;;28.23;15.57;;;;;;;0.87;85.79;96477.09;4848649;29;20058;-52
2021/12/10 21:59:19;;;;;;;29.30;15.13;;;;;;;0.98;85.21;96479.88;4844741;29;20559;-51
2021/12/10 22:02:16;;;;;;;28.98;15.77;;;;;;;1.05;84.82;96481.19;4860881;29;20504;-48
2021/12/10 22:04:44;;;;;;;28.52;16.30;;;;;;;0.84;85.70;96487.59;4846568;29;20502;-49
2021/12/10 22:07:23;;;;;;;30.90;16.05;;;;;;;0.81;85.52;96498.91;4841842;29;20094;-46
2021/12/10 22:10:11;;;;;;;29.88;15.85;;;;;;;1.12;84.65;96503.13;4841150;29;20550;-46
2021/12/10 22:12:39;;;;;;;29.15;15.23;;;;;;;0.80;85.78;96496.41;4841820;29;20098;-48
2021/12/10 22:15:10;;;;;;;27.15;14.68;;;;;;;0.96;85.34;96507.50;4840867;29;20443;-47
2021/12/10 22:17:36;;;;;;;27.38;15.10;;;;;;;0.88;85.83;96509.72;4841172;29;20022;-47
2021/12/10 22:20:11;;;;;;;29.88;15.75;;;;;;;0.96;85.35;96515.25;4841263;29;20041;-50
2021/12/10 22:22:38;;;;;;;29.15;15.38;;;;;;;0.94;85.11;96519.69;4840835;29;20025;-49
2021/12/10 22:25:12;;;;;;;30.13;13.90;;;;;;;1.11;84.95;96527.31;4840888;29;20022;-47
2021/12/10 22:27:40;;;;;;;28.67;15.52;;;;;;;0.99;85.03;96527.16;4844197;29;20081;-52
2021/12/10 22:30:14;;;;;;;26.67;14.50;;;;;;;1.00;85.25;96537.44;4842289;29;20112;-51
2021/12/10 22:32:41;;;;;;;29.65;16.55;;;;;;;1.00;84.95;96532.25;4841674;29;20029;-49
2021/12/10 22:35:43;;;;;;;26.85;14.57;;;;;;;0.98;85.21;96536.66;4840837;29;20541;-51
2021/12/10 22:38:11;;;;;;;31.10;16.30;;;;;;;0.92;85.61;96543.00;4838652;29;20060;-48
2021/12/10 22:40:41;;;;;;;31.98;16.45;;;;;;;0.86;86.02;96542.50;4838311;29;20093;-47
2021/12/10 22:43:32;;;;;;;28.88;16.02;;;;;;;0.94;85.82;96541.19;4840146;29;20530;-49
2021/12/10 22:46:01;;;;;;;27.13;14.40;;;;;;;0.96;85.65;96546.25;4841232;29;20137;-47
2021/12/10 22:48:33;;;;;;;28.02;14.45;;;;;;;0.95;84.99;96536.84;4839862;29;20057;-49
2021/12/10 22:51:01;;;;;;;28.00;14.40;;;;;;;0.89;85.81;96548.34;4819740;29;20034;-47
2021/12/10 22:53:32;;;;;;;26.60;13.30;;;;;;;0.85;86.28;96561.50;4812676;29;20047;-47
2021/12/10 22:55:57;;;;;;;28.40;13.45;;;;;;;0.93;86.22;96559.34;4821309;29;20045;-48
2021/12/10 22:58:30;;;;;;;25.40;12.98;;;;;;;0.94;85.95;96561.00;4818938;29;20483;-49
2021/12/10 23:00:58;;;;;;;28.42;13.40;;;;;;;0.98;86.06;96572.00;4802364;29;20057;-47
2021/12/10 23:03:32;;;;;;;26.10;12.20;;;;;;;1.04;85.47;96567.31;4815262;29;20053;-46
2021/12/10 23:06:02;;;;;;;21.13;11.68;;;;;;;1.05;85.43;96573.31;4815375;29;20060;-46
2021/12/10 23:08:35;;;;;;;22.95;11.50;;;;;;;1.26;84.92;96577.25;4823465;29;20030;-48
2021/12/10 23:11:20;;;;;;;20.38;11.27;;;;;;;1.19;84.93;96586.25;4806354;29;20047;-49
2021/12/10 23:13:54;;;;;;;18.05;9.77;;;;;;;1.12;85.32;96585.78;4838633;29;20041;-46
2021/12/10 23:16:25;;;;;;;20.80;10.52;;;;;;;1.04;85.58;96590.56;4849622;29;20034;-50
2021/12/10 23:19:06;;;;;;;19.00;10.07;;;;;;;0.97;86.12;96590.97;4844472;29;20037;-48
2021/12/10 23:21:47;;;;;;;22.55;10.65;;;;;;;0.89;86.49;96604.28;4844821;29;20034;-47
2021/12/10 23:24:21;;;;;;;20.60;10.57;;;;;;;1.00;85.79;96601.97;4844360;29;20037;-47
2021/12/10 23:26:55;;;;;;;20.10;10.00;;;;;;;1.09;86.02;96610.94;4843449;29;20025;-47
2021/12/10 23:29:48;;;;;;;19.50;9.77;;;;;;;1.06;86.13;96617.09;4860639;29;20442;-46
2021/12/10 23:32:35;;;;;;;21.45;10.18;;;;;;;1.02;86.09;96618.19;4862273;29;20034;-47
2021/12/10 23:35:03;;;;;;;20.13;9.18;;;;;;;0.92;86.69;96625.59;4861981;29;20406;-48
2021/12/10 23:37:29;;;;;;;19.13;8.95;;;;;;;0.97;86.06;96624.53;4850400;29;20049;-47
2021/12/10 23:40:01;;;;;;;18.70;9.25;;;;;;;0.90;86.53;96631.78;4843769;29;20112;-46
2021/12/10 23:42:33;;;;;;;17.67;8.63;;;;;;;0.95;86.42;96633.19;4849162;29;20538;-48
2021/12/10 23:45:01;;;;;;;;;;;;;;;0.89;86.51;96637.84;4862747;29;20113;-46
2021/12/10 23:47:28;;;;;;;18.45;8.80;;;;;;;0.93;86.82;96636.78;4855817;29;19923;-46
2021/12/10 23:49:59;;;;;;;19.23;9.68;;;;;;;1.00;86.52;96642.44;4843728;29;20064;-48
2021/12/10 23:52:27;;;;;;;18.60;8.80;;;;;;;1.05;86.26;96643.03;4843663;29;20040;-46
2021/12/10 23:55:14;;;;;;;18.58;9.13;;;;;;;0.90;86.79;96642.13;4843611;29;20337;-48
2021/12/10 23:57:42;;;;;;;18.67;9.13;;;;;;;0.75;87.38;96642.94;4843022;29;20062;-44
